Latest Coastal Weather Observations for Cape Moreton

IDQ60701

Issued at 12:35 pm EST Saturday 2 August 2014 (issued every 10 minutes, with the page automatically refreshed every 10 minutes)

About coastal observations | Map of coastal stations | Coastal observations for QLD | Marine services | Other Formats
Station Details ID: 040043 Name: CAPE MORETON LIGHTHOUSE Lat: -27.03 Lon: 153.47 Height: 99.9 m
Data from the previous 72 hours. | See also: Recent months at Cape Moreton
Date/Time
EST
Temp

°C
Wind Pressure Rain
since 9am
mm
Weather Cloud Vis
km
Sea
Height
m
Swell
Dir
 
Speed
knots
Gust
knots
hPa Trend Height
m
Period
s
Dir
02/12:30pm 16.8 SSE 13 17 1022.2 - - - - - - - - -
02/12:00pm 16.7 S 12 18 1022.4 - - - - - - - - -
02/11:30am 17.2 SSW 9 13 1022.7 - - - - - - - - -
02/11:00am 16.4 SSW 9 15 1022.7 - - - - - - - - -
02/10:30am 15.7 SSW 11 15 1022.9 - - - - - - - - -
02/10:00am 15.6 SW 13 19 1022.9 - - - - - - - - -
02/09:30am 14.9 SW 14 19 1022.8 - - - - - - - - -
02/09:00am 15.0 SW 12 18 1022.5 - - - - - - - - -
02/08:30am 14.3 SW 14 21 1022.2 - - - - - - - - -
02/08:00am 14.1 SW 16 25 1021.5 - - - - - - - - -
02/07:30am 13.7 SW 16 26 1021.2 - - - - - - - - -
02/07:00am 13.7 SW 15 23 1020.9 - - - - - - - - -
02/06:30am 13.6 SW 11 16 1020.5 - - - - - - - - -
02/06:00am 14.1 SW 12 21 1019.7 - - - - - - - - -
02/05:30am 14.5 SW 11 16 1019.3 - - - - - - - - -
02/05:00am 15.2 SW 13 20 1018.5 - - - - - - - - -
02/04:30am 15.5 SW 13 18 1018.3 - - - - - - - - -
02/04:00am 15.8 SW 11 19 1017.8 - - - - - - - - -
02/03:30am 16.0 SW 10 15 1017.9 - - - - - - - - -
02/03:00am 16.5 WSW 12 19 1017.5 - - - - - - - - -
02/02:30am 17.0 SW 10 17 1017.6 - - - - - - - - -
02/02:00am 17.5 SW 13 19 1017.2 - - - - - - - - -
02/01:30am 18.1 S 9 12 1017.5 - - - - - - - - -
02/01:00am 18.1 WSW 12 18 1016.9 - - - - - - - - -
02/12:30am 18.3 WSW 15 20 1016.7 - - - - - - - - -
02/12:00am 18.8 W 13 16 1016.3 - - - - - - - - -
 
Date/Time
EST
Temp

°C
Wind Pressure Rain
since 9am
mm
Weather Cloud Vis
km
Sea
Height
m
Swell
Dir
 
Speed
knots
Gust
knots
hPa Trend Height
m
Period
s
Dir
01/11:30pm 19.3 W 11 16 1016.2 - - - - - - - - -
01/11:00pm 19.4 WNW 13 17 1015.7 - - - - - - - - -
01/10:30pm 19.5 NNW 15 21 1015.4 - - - - - - - - -
01/10:00pm 19.7 NW 18 23 1015.1 - - - - - - - - -
01/09:30pm 20.1 NNW 20 28 1014.5 - - - - - - - - -
01/09:00pm 20.2 NNW 17 25 1014.3 - - - - - - - - -
01/08:30pm 20.5 N 18 24 1014.4 - - - - - - - - -
01/08:00pm 20.8 NNW 18 25 1014.0 - - - - - - - - -
01/07:30pm 20.7 NNW 19 24 1013.9 - - - - - - - - -
01/07:00pm 20.6 N 21 26 1013.4 - - - - - - - - -
01/06:30pm 20.5 N 23 31 1013.2 - - - - - - - - -
01/06:00pm 20.3 N 20 26 1012.7 - - - - - - - - -
01/05:30pm 20.4 N 20 26 1012.7 - - - - - - - - -
01/05:00pm 20.6 N 20 25 1012.2 - - - - - - - - -
01/04:30pm 20.8 N 19 24 1012.3 - - - - - - - - -
01/04:00pm 21.2 N 18 23 1012.1 - - - - - - - - -
01/03:30pm 21.4 N 18 23 1012.2 - - - - - - - - -
01/03:00pm 21.3 N 18 22 1012.3 - - - - - - - - -
01/02:30pm 21.5 N 17 20 1012.8 - - - - - - - - -
01/02:00pm 21.6 N 15 18 1012.9 - - - - - - - - -
01/01:30pm 21.3 N 15 19 1013.5 - - - - - - - - -
01/01:00pm 21.3 N 16 21 1013.7 - - - - - - - - -
01/12:30pm 21.5 NNW 13 20 1014.3 - - - - - - - - -
01/12:00pm 21.0 N 15 21 1014.6 - - - - - - - - -
01/11:30am 20.6 N 15 20 1015.5 - - - - - - - - -
01/11:00am 20.4 NNW 14 18 1015.9 - - - - - - - - -
01/10:30am 20.4 NNW 13 17 1016.5 - - - - - - - - -
01/10:00am 19.8 NNW 14 19 1016.6 - - - - - - - - -
01/09:30am 19.5 NW 16 22 1017.0 - - - - - - - - -
01/09:00am 19.2 NW 14 17 1017.0 - - - - - - - - -
01/08:30am 18.8 NW 14 17 1017.1 - - - - - - - - -
01/08:00am 18.6 NW 11 16 1017.1 - - - - - - - - -
01/07:30am 18.1 NW 12 15 1017.2 - - - - - - - - -
01/07:00am 17.7 NW 12 16 1016.9 - - - - - - - - -
01/06:30am 17.5 NW 14 18 1016.9 - - - - - - - - -
01/06:00am 17.8 NW 15 19 1016.8 - - - - - - - - -
01/05:30am 18.2 NW 17 23 1016.5 - - - - - - - - -
01/05:00am 18.5 NNW 18 24 1016.0 - - - - - - - - -
01/04:30am 18.5 NNW 17 23 1015.9 - - - - - - - - -
01/04:00am 18.5 NNW 17 25 1015.7 - - - - - - - - -
01/03:30am 18.6 NNW 18 23 1016.0 - - - - - - - - -
01/03:00am 18.6 NNW 16 22 1016.1 - - - - - - - - -
01/02:30am 18.6 NNW 17 23 1016.6 - - - - - - - - -
01/02:00am 18.6 NNW 16 22 1016.8 - - - - - - - - -
01/01:30am 18.6 NNW 15 20 1017.2 - - - - - - - - -
01/01:00am 18.6 NNW 14 19 1017.5 - - - - - - - - -
01/12:30am 18.8 NNW 15 22 1017.8 - - - - - - - - -
01/12:00am 18.7 NNW 17 24 1017.6 - - - - - - - - -
 
Date/Time
EST
Temp

°C
Wind Pressure Rain
since 9am
mm
Weather Cloud Vis
km
Sea
Height
m
Swell
Dir
 
Speed
knots
Gust
knots
hPa Trend Height
m
Period
s
Dir
31/11:30pm 19.0 NNW 18 25 1017.7 - - - - - - - - -
31/11:00pm 19.1 NNW 18 24 1017.7 - - - - - - - - -
31/10:30pm 19.9 N 22 27 1017.9 - - - - - - - - -
31/10:00pm 19.8 N 18 23 1018.0 - - - - - - - - -
31/09:30pm 19.9 N 19 22 1018.2 - - - - - - - - -
31/09:00pm 19.7 N 19 23 1018.1 - - - - - - - - -
31/08:30pm 19.8 N 20 25 1018.1 - - - - - - - - -
31/08:00pm 19.7 N 19 25 1017.7 - - - - - - - - -
31/07:30pm 19.7 N 19 24 1017.4 - - - - - - - - -
31/07:00pm 19.6 N 21 26 1017.1 - - - - - - - - -
31/06:30pm 19.6 NNE 19 24 1017.0 - - - - - - - - -
31/06:00pm 19.7 N 19 24 1016.8 - - - - - - - - -
31/05:30pm 19.8 N 18 23 1016.8 - - - - - - - - -
31/05:00pm 19.8 N 18 22 1016.6 - - - - - - - - -
31/04:30pm 20.0 NNE 17 21 1016.6 - - - - - - - - -
31/04:00pm 20.6 N 14 19 1016.4 - - - - - - - - -
31/03:30pm 20.7 N 13 17 1016.7 - - - - - - - - -
31/03:00pm 20.9 N 14 18 1016.7 - - - - - - - - -
31/02:30pm 21.0 N 12 18 1017.0 - - - - - - - - -
31/02:00pm 21.2 N 12 17 1017.3 - - - - - - - - -
31/01:30pm 21.0 N 12 16 1017.9 - - - - - - - - -
31/01:00pm 21.2 N 11 13 1018.4 - - - - - - - - -
31/12:30pm 21.1 N 11 13 1019.2 - - - - - - - - -
31/12:00pm 21.0 N 12 15 1019.6 - - - - - - - - -
31/11:30am 20.8 NNW 9 12 1020.4 - - - - - - - - -
31/11:00am 19.9 NNW 10 11 1020.9 - - - - - - - - -
31/10:30am 20.1 NW 10 13 1021.7 - - - - - - - - -
31/10:00am 19.5 NW 11 15 1021.8 - - - - - - - - -
31/09:30am 19.2 NW 11 15 1022.0 - - - - - - - - -
31/09:00am 18.9 NW 11 15 1021.9 - - - - - - - - -
31/08:30am 18.6 NW 10 13 1021.7 - - - - - - - - -
31/08:00am 18.0 WNW 11 15 1021.3 - - - - - - - - -
31/07:30am 17.9 NW 12 17 1021.0 - - - - - - - - -
31/07:00am 17.1 NW 12 15 1020.7 - - - - - - - - -
31/06:30am 17.1 NW 12 16 1020.7 - - - - - - - - -
31/06:00am 17.3 NW 13 18 1020.4 - - - - - - - - -
31/05:30am 17.7 NW 12 17 1020.4 - - - - - - - - -
31/05:00am 18.0 NW 15 19 1020.0 - - - - - - - - -
31/04:30am 18.1 NNW 16 20 1020.0 - - - - - - - - -
31/04:00am 18.3 NNW 15 20 1019.9 - - - - - - - - -
31/03:30am 18.2 NNW 16 21 1019.9 - - - - - - - - -
31/03:00am 18.3 NNW 17 23 1019.7 - - - - - - - - -
31/02:30am 18.3 NNW 15 21 1019.9 - - - - - - - - -
31/02:00am 18.4 NNW 14 19 1020.0 - - - - - - - - -
31/01:30am 18.4 NNW 14 20 1020.4 - - - - - - - - -
31/01:00am 18.6 NNW 14 19 1020.5 - - - - - - - - -
31/12:30am 18.6 NNW 14 21 1020.7 - - - - - - - - -
31/12:00am 18.8 NNW 15 21 1020.8 - - - - - - - - -
 
Date/Time
EST
Temp

°C
Wind Pressure Rain
since 9am
mm
Weather Cloud Vis
km
Sea
Height
m
Swell
Dir
 
Speed
knots
Gust
knots
hPa Trend Height
m
Period
s
Dir
30/11:30pm 18.8 NNW 16 20 1021.0 - - - - - - - - -
30/11:00pm 18.8 NNW 14 19 1021.2 - - - - - - - - -
30/10:30pm 18.8 NNW 12 18 1021.4 - - - - - - - - -
30/10:00pm 18.8 NW 14 19 1021.1 - - - - - - - - -
30/09:30pm 19.3 NNW 14 19 1021.1 - - - - - - - - -
30/09:00pm 19.4 NNW 13 18 1021.1 - - - - - - - - -
30/08:30pm 19.4 NNW 13 17 1021.1 - - - - - - - - -
30/08:00pm 19.5 N 15 18 1020.7 - - - - - - - - -
30/07:30pm 19.6 N 13 17 1020.8 - - - - - - - - -
30/07:00pm 19.4 N 14 17 1020.5 - - - - - - - - -
30/06:30pm 19.5 N 15 18 1020.1 - - - - - - - - -
30/06:00pm 19.5 N 14 18 1019.7 - - - - - - - - -
30/05:30pm 19.4 N 11 15 1019.6 - - - - - - - - -
30/05:00pm 19.7 N 11 13 1019.3 - - - - - - - - -
30/04:30pm 20.1 N 9 12 1019.5 - - - - - - - - -
30/04:00pm 20.5 N 11 14 1019.2 - - - - - - - - -
30/03:30pm 20.7 N 12 15 1019.1 - - - - - - - - -
30/03:00pm 20.9 N 11 14 1018.9 - - - - - - - - -
30/02:30pm 20.9 N 13 16 1019.1 - - - - - - - - -
30/02:00pm 20.6 N 11 15 1019.2 - - - - - - - - -
30/01:30pm 20.9 N 11 15 1019.6 - - - - - - - - -
30/01:00pm 20.7 NNW 9 13 1020.0 - - - - - - - - -

Other Formats:

Comma delimited format used in spreadsheet applications
http://www.bom.gov.au/fwo/IDQ60701/IDQ60701.94594.axf

JavaScript Object Notation format (JSON) in row-major order
http://www.bom.gov.au/fwo/IDQ60701/IDQ60701.94594.json